Time;durP1;ratioP1;P1;durP2;ratioP2;P2;SDS_P1;SDS_P2;PMS_P1;PMS_P2;Temp;Humidity;BMP_temperature;BMP_pressure;BME280_temperature;BME280_humidity;BME280_pressure;Samples;Min_cycle;Max_cycle;Signal;HPM_P1;HPM_P2
2021/10/19 00:01:50;;;;;;;20.75;10.98;;;;;;;6.05;91.68;99975.72;1679887;85;20978;-69
2021/10/19 00:04:16;;;;;;;24.12;11.10;;;;;;;6.02;91.79;99975.72;1679733;85;21997;-69
2021/10/19 00:06:43;;;;;;;28.23;11.65;;;;;;;6.02;92.34;99984.44;1679723;84;20952;-68
2021/10/19 00:09:10;;;;;;;26.37;10.98;;;;;;;6.05;92.72;99987.44;1679714;85;21054;-69
2021/10/19 00:11:37;;;;;;;26.12;11.63;;;;;;;6.07;92.59;99989.88;1679902;84;20984;-68
2021/10/19 00:14:04;;;;;;;20.52;11.00;;;;;;;6.08;92.53;99992.87;1679896;85;20949;-68
2021/10/19 00:16:31;;;;;;;20.50;10.70;;;;;;;6.09;92.49;99989.06;1679903;85;21175;-68
2021/10/19 00:18:57;;;;;;;22.62;11.22;;;;;;;6.09;92.73;99984.43;1680155;85;20904;-68
2021/10/19 00:21:24;;;;;;;15.53;8.63;;;;;;;6.08;92.58;99993.70;1679915;85;20992;-69
2021/10/19 00:23:51;;;;;;;21.10;10.40;;;;;;;6.07;92.54;99996.70;1680197;85;21547;-69
2021/10/19 00:26:17;;;;;;;14.90;8.95;;;;;;;6.04;92.63;99998.06;1679858;85;20961;-68
2021/10/19 00:28:45;;;;;;;17.55;9.95;;;;;;;6.03;92.54;99993.70;1680174;85;21095;-68
2021/10/19 00:31:11;;;;;;;14.98;9.05;;;;;;;6.00;92.51;99994.80;1679788;84;20996;-68
2021/10/19 00:33:38;;;;;;;16.75;8.30;;;;;;;5.96;92.57;99992.63;1679867;84;20946;-68
2021/10/19 00:36:05;;;;;;;17.85;8.78;;;;;;;5.91;92.39;99997.26;1679845;85;21524;-67
2021/10/19 00:38:32;;;;;;;20.60;10.30;;;;;;;5.85;92.34;100000.50;1679930;84;21004;-68
2021/10/19 00:40:59;;;;;;;16.05;8.30;;;;;;;5.81;92.82;100006.22;1679937;85;21137;-68
2021/10/19 00:43:26;;;;;;;23.20;9.45;;;;;;;5.76;92.69;100001.35;1680105;85;20989;-68
2021/10/19 00:45:55;;;;;;;18.55;9.60;;;;;;;5.69;92.97;99994.81;1679818;84;20993;-68
2021/10/19 00:48:24;;;;;;;20.62;9.38;;;;;;;5.66;93.19;99998.63;1689919;83;21028;-68
2021/10/19 00:50:49;;;;;;;19.92;8.93;;;;;;;5.61;93.16;100002.98;1697122;84;20940;-69
2021/10/19 00:53:16;;;;;;;15.58;8.65;;;;;;;5.57;93.35;99999.70;1697611;84;21671;-68
2021/10/19 00:55:43;;;;;;;16.25;8.73;;;;;;;5.52;93.34;100005.16;1697575;84;21032;-68
2021/10/19 00:58:10;;;;;;;21.42;9.18;;;;;;;5.46;93.08;100004.88;1697293;84;20944;-69
2021/10/19 01:00:37;;;;;;;17.40;8.78;;;;;;;5.37;93.21;100010.03;1697524;84;20913;-69
2021/10/19 01:03:04;;;;;;;19.92;9.90;;;;;;;5.26;93.15;100010.56;1697326;84;20995;-68
2021/10/19 01:05:31;;;;;;;16.95;8.50;;;;;;;5.15;93.19;100008.93;1697121;84;21128;-69
2021/10/19 01:07:57;;;;;;;17.80;8.40;;;;;;;5.06;93.28;100013.26;1697194;84;20920;-69
2021/10/19 01:10:24;;;;;;;13.48;7.45;;;;;;;4.98;93.37;100015.14;1697516;84;21491;-68
2021/10/19 01:12:52;;;;;;;15.72;7.92;;;;;;;4.91;93.56;100020.02;1697230;83;21036;-69
2021/10/19 01:15:19;;;;;;;25.08;8.45;;;;;;;4.76;94.09;100021.31;1697232;84;20932;-69
2021/10/19 01:17:49;;;;;;;15.95;8.20;;;;;;;4.76;94.09;100021.31;1697184;84;21965;-69
2021/10/19 01:20:31;;;;;;;14.03;7.87;;;;;;;4.65;93.74;100026.70;1697304;84;20869;-70
2021/10/19 01:22:58;;;;;;;15.45;8.15;;;;;;;4.54;93.91;100019.61;1696898;84;20944;-68
2021/10/19 01:25:29;;;;;;;16.52;7.58;;;;;;;4.46;94.17;100026.91;1697131;84;20896;-68
2021/10/19 01:28:03;;;;;;;16.82;7.45;;;;;;;4.34;94.66;100023.57;1697280;84;21485;-68
2021/10/19 01:30:30;;;;;;;17.07;8.58;;;;;;;4.31;94.94;100022.20;1675434;84;21117;-69
2021/10/19 01:32:57;;;;;;;20.77;9.18;;;;;;;4.31;94.94;100022.20;1697045;84;20955;-68
2021/10/19 01:35:36;;;;;;;21.55;10.18;;;;;;;4.22;94.50;100036.55;1697618;84;20996;-69
2021/10/19 01:38:04;;;;;;;30.68;12.55;;;;;;;4.22;94.50;100036.55;1697298;84;21483;-69
2021/10/19 01:40:32;;;;;;;30.27;12.65;;;;;;;4.18;94.69;100029.99;1675383;84;21380;-69
2021/10/19 01:42:59;;;;;;;26.45;11.68;;;;;;;4.15;94.97;100034.05;1697203;84;21142;-69
2021/10/19 01:45:26;;;;;;;21.30;10.82;;;;;;;4.08;95.03;100033.45;1661098;85;20935;-69
2021/10/19 01:47:52;;;;;;;26.25;10.85;;;;;;;4.01;94.79;100029.36;1656856;85;21468;-69
2021/10/19 01:50:19;;;;;;;20.43;9.93;;;;;;;3.93;94.79;100032.84;1644019;87;20885;-68
2021/10/19 01:52:46;;;;;;;19.30;9.80;;;;;;;3.84;94.88;100033.58;1677168;84;20937;-69
2021/10/19 01:55:12;;;;;;;18.60;9.75;;;;;;;3.78;95.07;100040.86;1643954;87;21150;-68
2021/10/19 01:57:40;;;;;;;17.17;8.78;;;;;;;3.73;95.23;100038.10;1677018;85;20869;-69
2021/10/19 02:00:09;;;;;;;17.80;8.73;;;;;;;3.65;95.24;100038.57;1644071;87;21452;-68
2021/10/19 02:02:40;;;;;;;17.82;8.53;;;;;;;3.58;95.31;100044.75;1677487;85;20910;-69
2021/10/19 02:05:08;;;;;;;16.00;8.38;;;;;;;3.50;95.22;100050.64;1644017;87;21043;-69
2021/10/19 02:07:35;;;;;;;16.32;8.30;;;;;;;3.39;95.05;100041.61;1650205;85;21228;-69
2021/10/19 02:10:04;;;;;;;15.90;8.43;;;;;;;3.27;94.94;100047.19;1644007;87;21201;-69
2021/10/19 02:12:31;;;;;;;16.45;7.53;;;;;;;3.21;95.35;100050.92;1677259;84;21001;-69
2021/10/19 02:14:58;;;;;;;16.80;8.25;;;;;;;3.15;95.20;100059.26;1677136;85;21015;-69
2021/10/19 02:17:24;;;;;;;22.80;10.18;;;;;;;3.02;94.78;100056.41;1677294;85;21566;-72
2021/10/19 02:19:51;;;;;;;17.70;9.55;;;;;;;2.93;94.57;100066.88;1686472;84;21572;-69
2021/10/19 02:22:19;;;;;;;15.50;8.23;;;;;;;2.79;94.78;100071.59;1670418;84;20952;-69
2021/10/19 02:24:46;;;;;;;20.80;8.43;;;;;;;2.79;94.78;100071.59;1705397;84;20958;-69
2021/10/19 02:27:12;;;;;;;18.98;8.58;;;;;;;2.69;94.50;100071.47;1705715;84;20985;-69
2021/10/19 02:29:39;;;;;;;15.05;8.68;;;;;;;2.59;94.28;100080.28;1671305;86;20956;-69
2021/10/19 02:32:06;;;;;;;16.67;8.83;;;;;;;2.49;94.26;100079.60;1705824;84;21485;-70
2021/10/19 02:34:32;;;;;;;18.60;9.58;;;;;;;2.41;94.52;100079.20;1671184;86;21004;-68
2021/10/19 02:36:59;;;;;;;23.70;11.48;;;;;;;2.34;94.67;100086.16;1705734;84;20901;-68
2021/10/19 02:39:25;;;;;;;22.98;10.60;;;;;;;2.28;94.84;100088.53;1705479;84;20965;-68
2021/10/19 02:41:52;;;;;;;24.63;10.75;;;;;;;2.27;95.64;100089.06;1705763;84;21000;-68
2021/10/19 02:44:18;;;;;;;24.32;10.58;;;;;;;2.28;96.20;100095.30;1705551;84;21510;-69
2021/10/19 02:46:45;;;;;;;22.35;10.63;;;;;;;2.28;96.26;100099.37;1705273;84;20965;-67
2021/10/19 02:49:11;;;;;;;17.32;9.80;;;;;;;2.24;96.39;100104.46;1705288;82;21500;-68
2021/10/19 02:51:38;;;;;;;17.07;9.50;;;;;;;2.16;95.65;100099.99;1671405;84;20873;-68
2021/10/19 02:54:04;;;;;;;19.52;9.38;;;;;;;2.04;95.43;100098.72;1690740;83;20961;-68
2021/10/19 02:56:31;;;;;;;25.52;10.63;;;;;;;1.95;95.33;100102.37;1671562;85;21416;-67
2021/10/19 02:58:58;;;;;;;18.55;10.55;;;;;;;1.93;95.89;100102.33;1705378;84;20938;-67
2021/10/19 03:01:24;;;;;;;19.27;10.23;;;;;;;1.90;96.12;100100.11;1705704;84;21473;-67
2021/10/19 03:03:51;;;;;;;22.25;10.53;;;;;;;1.87;96.32;100111.42;1705408;84;20969;-68
2021/10/19 03:06:18;;;;;;;19.23;9.50;;;;;;;1.85;96.66;100112.20;1705371;84;20985;-68
2021/10/19 03:08:45;;;;;;;23.05;10.93;;;;;;;1.80;96.70;100115.64;1671391;84;21930;-68
2021/10/19 03:11:12;;;;;;;21.93;10.13;;;;;;;1.78;96.93;100110.19;1705403;82;21088;-68
2021/10/19 03:13:40;;;;;;;23.15;10.38;;;;;;;1.74;96.81;100112.56;1705483;84;20846;-68
2021/10/19 03:16:06;;;;;;;17.42;8.73;;;;;;;1.72;97.15;100117.42;1705574;84;20933;-68
2021/10/19 03:18:33;;;;;;;23.42;9.35;;;;;;;1.69;97.16;100121.16;1671273;84;20924;-67
2021/10/19 03:21:00;;;;;;;22.42;9.43;;;;;;;1.63;96.87;100121.59;1705003;83;21144;-68
2021/10/19 03:23:27;;;;;;;14.03;8.18;;;;;;;1.57;96.82;100127.44;1631299;86;20941;-68
2021/10/19 03:25:54;;;;;;;23.20;9.40;;;;;;;1.51;96.95;100122.17;1705456;84;21464;-68
2021/10/19 03:28:20;;;;;;;18.25;9.43;;;;;;;1.50;97.50;100128.12;1671246;85;20985;-68
2021/10/19 03:30:47;;;;;;;18.23;9.23;;;;;;;1.46;97.54;100129.66;1705472;84;20914;-68
2021/10/19 03:33:13;;;;;;;16.93;8.38;;;;;;;1.41;97.53;100130.09;1713948;82;21019;-68
2021/10/19 03:35:40;;;;;;;18.90;10.15;;;;;;;1.38;97.91;100131.41;1737624;82;21412;-67
2021/10/19 03:38:07;;;;;;;21.02;10.05;;;;;;;1.35;98.19;100131.88;1737603;82;20932;-68
2021/10/19 03:40:34;;;;;;;18.02;9.98;;;;;;;1.34;98.67;100126.19;1737592;82;20976;-68
2021/10/19 03:43:00;;;;;;;17.02;8.30;;;;;;;1.35;99.11;100130.53;1737958;81;20900;-69
2021/10/19 03:45:27;;;;;;;16.97;9.08;;;;;;;1.38;99.92;100130.58;1737728;81;21965;-68
2021/10/19 03:47:55;;;;;;;17.62;9.53;;;;;;;1.42;100.00;100129.86;1737707;82;20921;-69
2021/10/19 03:50:21;;;;;;;16.85;8.63;;;;;;;1.44;100.00;100129.09;1737881;82;21003;-68
2021/10/19 03:52:48;;;;;;;21.57;9.78;;;;;;;1.42;100.00;100129.86;1737841;81;20944;-68
2021/10/19 03:55:15;;;;;;;21.02;8.33;;;;;;;1.43;100.00;100136.09;1727820;82;21010;-68
2021/10/19 03:57:42;;;;;;;17.42;8.73;;;;;;;1.47;100.00;100139.95;1656702;86;21166;-68
2021/10/19 04:00:10;;;;;;;24.40;11.05;;;;;;;1.46;100.00;100139.67;1677419;85;20897;-68
2021/10/19 04:02:40;;;;;;;23.07;9.58;;;;;;;1.46;100.00;100150.48;1677418;85;20961;-68
2021/10/19 04:05:07;;;;;;;16.00;8.88;;;;;;;1.43;100.00;100153.14;1644280;87;21048;-67
2021/10/19 04:07:37;;;;;;;19.05;8.95;;;;;;;1.42;100.00;100149.33;1677320;85;20960;-68
2021/10/19 04:10:06;;;;;;;17.30;8.83;;;;;;;1.41;100.00;100156.63;1677197;85;21365;-66
2021/10/19 04:12:33;;;;;;;17.98;9.58;;;;;;;1.37;100.00;100160.05;1677186;84;20957;-69
2021/10/19 04:15:00;;;;;;;23.38;8.45;;;;;;;1.35;100.00;100155.41;1677355;85;20933;-67
2021/10/19 04:17:27;;;;;;;18.57;8.80;;;;;;;1.35;100.00;100156.77;1644183;87;21558;-67
2021/10/19 04:19:53;;;;;;;18.92;8.58;;;;;;;1.32;100.00;100153.47;1662973;86;21009;-69
2021/10/19 04:22:22;;;;;;;20.40;9.53;;;;;;;1.31;100.00;100151.83;1650885;86;21217;-69
2021/10/19 04:24:51;;;;;;;15.50;7.80;;;;;;;1.31;100.00;100166.70;1704993;83;21551;-69
2021/10/19 04:27:19;;;;;;;16.57;8.73;;;;;;;1.33;100.00;100169.17;1671270;86;20960;-69
2021/10/19 04:29:45;;;;;;;14.38;7.17;;;;;;;1.33;100.00;100167.82;1705472;84;20953;-69
2021/10/19 04:32:12;;;;;;;16.93;7.75;;;;;;;1.31;100.00;100165.36;1705545;84;21592;-68
2021/10/19 04:34:38;;;;;;;19.27;8.73;;;;;;;1.31;100.00;100172.12;1705573;84;21088;-69
2021/10/19 04:37:05;;;;;;;16.23;8.45;;;;;;;1.31;100.00;100172.65;1671247;84;20917;-70
2021/10/19 04:39:33;;;;;;;16.05;8.28;;;;;;;1.30;100.00;100166.42;1705553;82;20981;-68
2021/10/19 04:42:00;;;;;;;16.35;7.87;;;;;;;1.27;100.00;100174.19;1705525;84;21461;-69
2021/10/19 04:44:26;;;;;;;16.25;7.78;;;;;;;1.23;100.00;100172.49;1705515;84;21618;-68
2021/10/19 04:46:56;;;;;;;14.78;7.37;;;;;;;1.19;100.00;100172.68;1671344;85;21510;-68
2021/10/19 04:49:22;;;;;;;19.23;7.78;;;;;;;1.17;100.00;100178.86;1705446;83;20933;-69
2021/10/19 04:51:49;;;;;;;18.73;8.03;;;;;;;1.12;100.00;100171.20;1671446;85;20952;-69
2021/10/19 04:54:15;;;;;;;13.85;8.03;;;;;;;1.13;100.00;100177.72;1705607;84;21528;-69
2021/10/19 04:56:42;;;;;;;13.70;7.70;;;;;;;1.15;100.00;100175.60;1670603;84;21043;-71
2021/10/19 04:59:09;;;;;;;16.35;7.90;;;;;;;1.21;100.00;100183.26;1705302;83;21108;-68
2021/10/19 05:01:36;;;;;;;14.38;7.85;;;;;;;1.25;100.00;100189.30;1671202;86;20956;-68
2021/10/19 05:04:03;;;;;;;18.92;9.55;;;;;;;1.30;100.00;100197.52;1705429;82;20976;-69
2021/10/19 05:06:29;;;;;;;21.62;9.48;;;;;;;1.32;100.00;100204.88;1705674;82;21418;-67
2021/10/19 05:08:56;;;;;;;26.37;9.93;;;;;;;1.37;100.00;100201.98;1705946;83;20981;-68
2021/10/19 05:11:24;;;;;;;36.42;13.83;;;;;;;1.40;100.00;100202.86;1671173;84;20905;-69
2021/10/19 05:13:50;;;;;;;54.80;17.02;;;;;;;1.43;100.00;100207.78;1705728;84;20913;-69
2021/10/19 05:16:17;;;;;;;58.78;19.73;;;;;;;1.50;100.00;100211.18;1705763;82;21036;-69
2021/10/19 05:18:43;;;;;;;64.53;20.00;;;;;;;1.58;100.00;100216.22;1705473;84;20985;-69
2021/10/19 05:21:10;;;;;;;56.95;20.15;;;;;;;1.66;100.00;100218.55;1705898;82;20921;-69
2021/10/19 05:23:36;;;;;;;38.02;15.08;;;;;;;1.70;100.00;100214.29;1705737;84;21546;-69
2021/10/19 05:26:03;;;;;;;27.62;12.80;;;;;;;1.74;100.00;100220.84;1705382;83;20957;-69
2021/10/19 05:28:30;;;;;;;24.30;11.38;;;;;;;1.79;100.00;100222.28;1697169;84;20906;-69
2021/10/19 05:30:58;;;;;;;30.02;11.20;;;;;;;1.84;100.00;100222.38;1686737;84;20921;-68
2021/10/19 05:33:25;;;;;;;22.52;9.05;;;;;;;1.88;100.00;100228.14;1677182;85;20997;-69
2021/10/19 05:35:52;;;;;;;14.85;8.85;;;;;;;1.90;100.00;100227.36;1644315;87;21527;-69
2021/10/19 05:38:19;;;;;;;19.15;10.20;;;;;;;1.89;100.00;100233.31;1677058;85;20870;-70
2021/10/19 05:40:45;;;;;;;17.25;8.60;;;;;;;1.91;100.00;100234.42;1677386;85;21011;-69
2021/10/19 05:43:11;;;;;;;17.12;8.93;;;;;;;1.97;100.00;100242.94;1644077;86;21575;-72
2021/10/19 05:45:38;;;;;;;16.82;9.13;;;;;;;2.04;100.00;100239.55;1677142;85;21477;-69
2021/10/19 05:48:05;;;;;;;18.55;9.28;;;;;;;2.13;100.00;100237.27;1643960;86;21579;-69
2021/10/19 05:50:34;;;;;;;17.90;8.43;;;;;;;2.22;100.00;100245.29;1676949;84;21004;-71
2021/10/19 05:53:00;;;;;;;16.87;8.90;;;;;;;2.29;100.00;100248.13;1677196;85;20993;-69
2021/10/19 05:55:27;;;;;;;20.08;9.90;;;;;;;2.40;100.00;100244.22;1644011;87;21032;-68
2021/10/19 05:57:54;;;;;;;21.93;9.85;;;;;;;2.50;100.00;100248.45;1677245;85;21009;-69
2021/10/19 06:00:20;;;;;;;19.23;9.65;;;;;;;2.59;100.00;100258.65;1663187;86;21083;-69
2021/10/19 06:02:48;;;;;;;19.87;8.90;;;;;;;2.71;100.00;100255.03;1698315;83;20918;-69
2021/10/19 06:05:18;;;;;;;21.07;8.93;;;;;;;2.80;100.00;100251.66;1671214;86;21485;-68
2021/10/19 06:07:44;;;;;;;19.45;8.90;;;;;;;2.90;100.00;100256.39;1705667;84;20988;-68
2021/10/19 06:10:11;;;;;;;21.42;9.20;;;;;;;2.98;100.00;100253.27;1705512;82;20958;-68
2021/10/19 06:12:39;;;;;;;17.30;8.33;;;;;;;3.07;100.00;100261.80;1671286;84;21160;-68
2021/10/19 06:15:06;;;;;;;21.23;9.58;;;;;;;3.16;100.00;100262.48;1705358;84;21032;-68
2021/10/19 06:17:34;;;;;;;21.15;10.60;;;;;;;3.27;100.00;100259.38;1671243;84;21016;-69
2021/10/19 06:20:01;;;;;;;26.30;11.93;;;;;;;3.38;100.00;100261.17;1705394;84;21480;-70
2021/10/19 06:22:27;;;;;;;20.25;9.13;;;;;;;3.53;100.00;100265.95;1705651;82;20954;-69
2021/10/19 06:24:53;;;;;;;12.55;7.28;;;;;;;3.66;100.00;100266.94;1705518;83;21125;-68
2021/10/19 06:27:20;;;;;;;13.60;6.85;;;;;;;3.96;99.69;100267.84;1671195;84;20952;-68
2021/10/19 06:29:47;;;;;;;13.48;7.40;;;;;;;3.96;99.69;100267.84;1705459;84;20901;-68
2021/10/19 06:32:14;;;;;;;12.90;6.95;;;;;;;4.37;99.01;100262.80;1705670;84;20982;-69
2021/10/19 06:34:42;;;;;;;13.05;7.42;;;;;;;5.03;98.26;100262.78;1671280;84;20956;-70
2021/10/19 06:37:08;;;;;;;10.95;6.35;;;;;;;5.74;95.33;100260.97;1705765;84;21123;-68
2021/10/19 06:39:35;;;;;;;11.48;6.05;;;;;;;6.38;90.88;100261.41;1705405;84;20977;-68
2021/10/19 06:42:02;;;;;;;14.10;7.05;;;;;;;6.95;87.64;100261.13;1671376;85;21478;-68
2021/10/19 06:44:30;;;;;;;15.10;6.67;;;;;;;7.44;84.74;100258.31;1705470;84;21461;-68
2021/10/19 06:46:57;;;;;;;10.23;6.17;;;;;;;7.84;82.13;100260.87;1705424;84;20885;-69
2021/10/19 06:49:24;;;;;;;10.05;5.85;;;;;;;8.21;79.50;100258.20;1705234;83;22089;-69
2021/10/19 06:51:50;;;;;;;14.23;5.90;;;;;;;8.56;78.37;100256.64;1705424;84;20862;-69
2021/10/19 06:54:16;;;;;;;9.73;5.05;;;;;;;8.95;76.43;100254.37;1705425;84;21410;-69
2021/10/19 06:56:43;;;;;;;11.05;5.83;;;;;;;9.13;70.94;100264.63;1705367;84;20948;-69
2021/10/19 06:59:09;;;;;;;8.28;5.65;;;;;;;9.21;70.28;100259.07;1705448;84;20921;-69
2021/10/19 07:01:36;;;;;;;9.35;5.17;;;;;;;9.24;68.73;100265.34;1705337;84;21129;-69
2021/10/19 07:04:03;;;;;;;8.33;5.00;;;;;;;9.30;68.66;100260.05;1671301;84;21097;-69
2021/10/19 07:06:30;;;;;;;15.20;5.53;;;;;;;9.47;67.32;100262.33;1704362;84;20894;-69
2021/10/19 07:08:57;;;;;;;8.55;5.08;;;;;;;9.54;64.99;100260.87;1671453;85;20989;-68
2021/10/19 07:11:26;;;;;;;10.35;4.85;;;;;;;9.48;65.51;100269.45;1705458;82;21044;-68
2021/10/19 07:13:54;;;;;;;10.65;6.30;;;;;;;9.60;65.23;100266.56;1704921;84;21513;-68
2021/10/19 07:16:20;;;;;;;13.10;5.65;;;;;;;9.72;65.64;100273.02;1704470;82;20968;-68
2021/10/19 07:18:47;;;;;;;9.78;5.80;;;;;;;9.92;64.57;100271.36;1671519;85;21520;-67
2021/10/19 07:21:14;;;;;;;10.23;5.47;;;;;;;10.03;63.22;100273.98;1704715;83;20957;-67
2021/10/19 07:23:41;;;;;;;12.47;5.00;;;;;;;10.06;63.48;100269.27;1697005;84;21579;-68
2021/10/19 07:26:08;;;;;;;8.35;4.85;;;;;;;10.11;61.51;100269.21;1692815;82;20941;-68
2021/10/19 07:28:37;;;;;;;9.05;5.55;;;;;;;10.27;61.87;100272.03;1671384;84;20912;-69
2021/10/19 07:31:03;;;;;;;8.95;4.30;;;;;;;10.63;60.71;100274.23;1705402;83;20933;-69
2021/10/19 07:33:30;;;;;;;7.80;3.85;;;;;;;10.90;60.72;100265.55;1705779;84;21449;-69
2021/10/19 07:35:57;;;;;;;8.70;4.20;;;;;;;11.25;60.33;100276.45;1705439;84;20945;-69
2021/10/19 07:38:23;;;;;;;8.20;4.20;;;;;;;11.59;58.52;100274.69;1705722;84;21560;-69
2021/10/19 07:40:50;;;;;;;10.72;4.30;;;;;;;11.82;57.40;100267.39;1705594;84;20937;-69
2021/10/19 07:43:16;;;;;;;8.15;4.58;;;;;;;12.09;56.77;100275.38;1671549;86;20916;-69
2021/10/19 07:45:43;;;;;;;7.75;4.15;;;;;;;12.29;54.50;100277.66;1705402;82;20922;-69
2021/10/19 07:48:10;;;;;;;12.25;5.37;;;;;;;12.31;54.44;100272.66;1705468;83;21369;-69
2021/10/19 07:50:37;;;;;;;11.18;4.80;;;;;;;12.41;53.38;100280.69;1704699;82;21964;-70
2021/10/19 07:53:04;;;;;;;7.72;5.37;;;;;;;12.48;53.07;100274.19;1704103;84;21500;-69
2021/10/19 07:55:33;;;;;;;9.28;4.90;;;;;;;12.54;52.11;100278.46;1704829;84;20925;-69
2021/10/19 07:57:59;;;;;;;6.83;3.87;;;;;;;12.49;52.22;100279.14;1704714;83;20933;-69
2021/10/19 08:00:28;;;;;;;11.20;3.72;;;;;;;12.52;52.50;100280.71;1671230;85;21606;-69
2021/10/19 08:02:57;;;;;;;7.67;4.20;;;;;;;12.62;51.15;100287.11;1705384;82;21168;-69
2021/10/19 08:05:25;;;;;;;7.50;3.70;;;;;;;12.74;52.43;100285.97;1671074;85;21000;-69
2021/10/19 08:08:09;;;;;;;6.03;3.20;;;;;;;12.96;50.02;100283.22;1705577;82;20984;-69
2021/10/19 08:10:36;;;;;;;8.30;3.42;;;;;;;13.16;50.25;100286.06;1705584;82;21048;-67
2021/10/19 08:13:03;;;;;;;5.80;3.37;;;;;;;13.37;49.21;100276.67;1705128;82;20989;-71
2021/10/19 08:15:30;;;;;;;5.62;3.45;;;;;;;13.45;47.66;100285.55;1664749;86;21153;-67
2021/10/19 08:17:57;;;;;;;10.88;3.17;;;;;;;13.44;47.38;100281.98;1672709;84;20938;-70
2021/10/19 08:20:24;;;;;;;12.82;3.62;;;;;;;13.42;48.57;100280.67;1666086;86;21055;-66
2021/10/19 08:22:50;;;;;;;5.37;2.87;;;;;;;13.50;47.77;100294.50;1705118;82;21508;-67
2021/10/19 08:25:17;;;;;;;7.97;3.00;;;;;;;13.53;45.94;100296.62;1703905;82;20904;-67
2021/10/19 08:27:45;;;;;;;5.22;2.17;;;;;;;13.38;47.97;100297.60;1699432;84;21154;-67
2021/10/19 08:30:14;;;;;;;6.37;2.35;;;;;;;13.40;45.97;100293.39;1701586;84;20886;-66
2021/10/19 08:32:41;;;;;;;3.08;1.90;;;;;;;13.50;46.35;100282.09;1704457;84;20929;-67
2021/10/19 08:35:09;;;;;;;5.60;2.42;;;;;;;13.85;46.05;100291.34;1704023;82;20937;-67
2021/10/19 08:37:37;;;;;;;4.12;1.92;;;;;;;14.15;43.34;100292.38;1704112;84;20894;-68
2021/10/19 08:40:06;;;;;;;4.35;1.87;;;;;;;14.23;43.96;100287.19;1704465;84;21120;-67
2021/10/19 08:42:33;;;;;;;8.08;2.75;;;;;;;14.34;42.47;100294.84;1704266;82;20993;-68
2021/10/19 08:45:01;;;;;;;7.03;2.50;;;;;;;14.51;42.28;100292.67;1704134;83;20922;-67
2021/10/19 08:47:28;;;;;;;12.37;4.10;;;;;;;14.74;43.78;100297.48;1705004;84;21767;-65
2021/10/19 08:49:55;;;;;;;7.75;2.50;;;;;;;15.13;41.57;100304.19;1671009;85;21523;-68
2021/10/19 08:52:22;;;;;;;7.45;2.77;;;;;;;15.28;38.17;100302.86;1672674;85;21143;-67
2021/10/19 08:54:49;;;;;;;5.92;2.47;;;;;;;15.17;39.73;100301.58;1690080;85;20893;-67
2021/10/19 08:57:16;;;;;;;4.28;1.92;;;;;;;15.24;39.20;100304.66;1691043;85;21001;-66
2021/10/19 08:59:46;;;;;;;3.85;2.15;;;;;;;15.32;38.28;100302.44;1690941;85;20913;-66
2021/10/19 09:02:13;;;;;;;22.17;3.15;;;;;;;15.40;38.78;100300.80;1690636;85;21060;-67
2021/10/19 09:04:40;;;;;;;5.70;2.85;;;;;;;15.37;37.86;100299.50;1690323;85;23147;-67
2021/10/19 09:07:06;;;;;;;7.80;3.25;;;;;;;15.33;38.99;100301.87;1689861;85;20897;-67
2021/10/19 09:09:35;;;;;;;6.42;2.42;;;;;;;15.47;37.68;100303.30;1690609;85;20993;-67
2021/10/19 09:12:05;;;;;;;12.75;2.40;;;;;;;15.56;36.82;100293.59;1696367;82;21086;-68
2021/10/19 09:14:37;;;;;;;6.60;2.58;;;;;;;15.59;37.28;100299.06;1657156;85;20967;-67
2021/10/19 09:17:05;;;;;;;6.00;2.20;;;;;;;15.79;37.32;100300.51;1671008;85;21131;-67
2021/10/19 09:19:34;;;;;;;11.65;2.55;;;;;;;16.07;35.48;100305.59;1685928;84;21009;-67
2021/10/19 09:22:08;;;;;;;4.40;1.75;;;;;;;16.10;36.21;100298.00;1700966;83;20908;-68
2021/10/19 09:24:39;;;;;;;7.10;3.50;;;;;;;16.32;35.95;100294.91;1652140;85;21703;-68
2021/10/19 09:27:18;;;;;;;11.28;4.40;;;;;;;16.50;34.82;100299.77;1673018;85;21000;-67
2021/10/19 09:29:47;;;;;;;13.68;3.50;;;;;;;16.17;32.90;100296.30;1645182;87;21193;-68
2021/10/19 09:32:18;;;;;;;4.40;2.30;;;;;;;15.56;32.96;100300.52;1655730;83;38767;-68
2021/10/19 09:34:46;;;;;;;11.28;4.28;;;;;;;14.97;34.60;100302.28;1699989;82;21057;-68
2021/10/19 09:37:20;;;;;;;13.45;4.47;;;;;;;14.78;34.17;100294.31;1657428;85;21078;-69
2021/10/19 09:39:50;;;;;;;7.20;3.00;;;;;;;14.82;35.02;100290.58;1671025;85;21067;-67
2021/10/19 09:42:23;;;;;;;12.68;4.10;;;;;;;15.08;34.29;100289.14;1680620;84;21121;-68
2021/10/19 09:45:02;;;;;;;8.65;4.25;;;;;;;15.24;33.77;100296.92;1686197;83;20970;-68
2021/10/19 09:47:37;;;;;;;16.05;5.83;;;;;;;15.00;33.78;100294.14;1682662;84;21087;-67
2021/10/19 09:50:06;;;;;;;23.32;6.85;;;;;;;14.58;34.48;100290.81;1683006;84;21038;-68
2021/10/19 09:52:39;;;;;;;10.23;4.95;;;;;;;14.64;35.14;100288.14;1672964;84;20975;-67
2021/10/19 09:55:09;;;;;;;7.85;3.20;;;;;;;14.85;34.14;100289.92;1672840;85;21077;-71
2021/10/19 09:57:36;;;;;;;11.28;4.20;;;;;;;14.94;34.10;100295.45;1673399;84;20941;-67
2021/10/19 10:00:05;;;;;;;2.00;1.15;;;;;;;15.09;33.66;100292.15;1671607;85;20935;-67
2021/10/19 10:02:36;;;;;;;;;;;;;;;15.19;33.51;100291.00;1676176;85;20986;-67
2021/10/19 10:05:04;;;;;;;8.98;4.47;;;;;;;15.45;32.73;100290.94;1663896;86;20145;-68
2021/10/19 10:07:31;;;;;;;4.55;1.37;;;;;;;15.57;31.24;100287.52;1649009;85;21150;-66
2021/10/19 10:10:04;;;;;;;3.47;1.85;;;;;;;15.66;31.11;100293.23;1673833;85;20894;-68
2021/10/19 10:12:37;;;;;;;4.92;2.02;;;;;;;15.57;31.96;100271.73;1673605;84;21097;-68
2021/10/19 10:15:05;;;;;;;3.75;1.98;;;;;;;15.61;30.96;100274.04;1674139;85;20978;-67
2021/10/19 10:17:38;;;;;;;8.00;3.00;;;;;;;15.70;31.21;100272.05;1674186;85;21473;-67
2021/10/19 10:20:09;;;;;;;12.65;3.20;;;;;;;15.70;30.71;100280.92;1674332;84;21173;-66
2021/10/19 10:22:47;;;;;;;11.83;4.55;;;;;;;15.50;32.67;100270.01;1673614;84;20926;-67
2021/10/19 10:25:17;;;;;;;12.78;3.62;;;;;;;15.76;31.03;100272.11;1641068;85;21449;-67
2021/10/19 10:27:54;;;;;;;7.70;2.80;;;;;;;15.90;30.28;100272.45;1674174;85;20906;-67
2021/10/19 10:30:29;;;;;;;5.67;2.40;;;;;;;15.74;29.69;100264.70;1674310;85;21014;-67
2021/10/19 10:33:03;;;;;;;10.18;3.30;;;;;;;15.59;29.66;100272.20;1674596;85;21144;-67
2021/10/19 10:35:29;;;;;;;6.20;2.35;;;;;;;15.50;29.13;100265.29;1673148;84;21046;-70
2021/10/19 10:37:57;;;;;;;8.93;1.82;;;;;;;15.57;30.28;100270.34;1677581;84;21065;-67
2021/10/19 10:40:38;;;;;;;4.05;1.50;;;;;;;15.73;30.87;100268.62;1690346;84;20977;-67
2021/10/19 10:43:25;;;;;;;4.95;2.25;;;;;;;16.12;29.70;100254.16;1697549;84;20957;-65
2021/10/19 10:46:21;;;;;;;2.20;1.10;;;;;;;16.50;29.06;100257.62;1697300;83;21145;-66
2021/10/19 10:48:52;;;;;;;4.65;2.12;;;;;;;16.69;26.50;100255.78;1697291;84;20945;-68
2021/10/19 10:51:37;;;;;;;7.08;3.00;;;;;;;16.52;27.11;100255.89;1695291;84;21043;-75
2021/10/19 10:54:06;;;;;;;4.10;1.90;;;;;;;16.55;27.53;100253.83;1695195;84;20949;-67
2021/10/19 10:56:49;;;;;;;11.00;2.00;;;;;;;16.74;27.23;100243.10;1694223;84;21572;-67
2021/10/19 10:59:28;;;;;;;9.35;1.85;;;;;;;16.79;27.37;100255.92;1694325;84;21484;-67
2021/10/19 11:02:07;;;;;;;7.10;2.05;;;;;;;16.84;26.67;100248.77;1682086;84;20925;-68
2021/10/19 11:04:54;;;;;;;3.70;1.65;;;;;;;16.90;27.36;100246.60;1680321;84;20965;-70
2021/10/19 11:07:37;;;;;;;3.60;1.57;;;;;;;17.02;26.90;100250.81;1693761;84;21441;-68
2021/10/19 11:10:18;;;;;;;4.80;1.57;;;;;;;16.88;27.72;100243.36;1695540;84;20992;-68
2021/10/19 11:12:48;;;;;;;3.25;1.30;;;;;;;16.97;26.09;100247.67;1695569;83;21101;-69
2021/10/19 11:15:21;;;;;;;10.38;1.57;;;;;;;16.98;26.38;100252.64;1690226;84;20990;-69
2021/10/19 11:17:53;;;;;;;2.08;1.05;;;;;;;17.04;26.68;100250.70;1654615;85;20944;-68
2021/10/19 11:20:37;;;;;;;6.45;1.32;;;;;;;17.26;25.45;100246.72;1659932;85;21542;-68
2021/10/19 11:22:52;;;;;;;2.87;1.00;;;;;;;17.20;26.37;100248.09;1675724;85;21023;-68
2021/10/19 11:25:24;;;;;;;2.77;1.70;;;;;;;17.26;25.77;100238.40;1681118;85;21514;-72
2021/10/19 11:27:54;;;;;;;5.53;1.82;;;;;;;17.20;27.03;100239.77;1681320;85;20955;-69